Aviation Digital Data Service (ADDS)

Output produced by METARs form (1717 UTC 23 September 2020)
found at http://aviationweather.gov/metar/data/
 
KUTS 231616Z 2316/2412 34012KT P6SM OVC003 
     TEMPO 2316/2318 3SM -RA BR OVC005 
     FM231800 34010KT P6SM BKN004 OVC006 
     FM240000 34003KT P6SM OVC015 
     FM240600 33003KT P6SM BKN015 BKN050